Terminal Aerodrome Forecast
Issued by NWS Pocatello, ID

Current Version | Previous Version | Text Only | Print | Product List | Glossary On
Versions: 1 2 3 4 5 6 7 8 9 10 11 12 13 14 15
000
FTUS45 KPIH 221100
TAFIDA
TAF
KIDA 221120Z 2212/2312 VRB06KT 6SM BR OVC050
     FM221500 20008KT P6SM -SHRA VCTS BKN060CB
     FM222000 22013KT P6SM -SHRA VCTS SCT040 BKN060CB
     FM230300 VRB06KT P6SM SCT060 BKN100=

USA.gov is the U.S. government's official web portal to all federal, state and local government web resources and services.